Time;durP1;ratioP1;P1;durP2;ratioP2;P2;SDS_P1;SDS_P2;PMS_P1;PMS_P2;Temp;Humidity;BMP_temperature;BMP_pressure;BME280_temperature;BME280_humidity;BME280_pressure;Samples;Min_cycle;Max_cycle;Signal;HPM_P1;HPM_P2
2021/08/07 00:02:05;;;;;;;34.88;26.35;;;;;;;18.27;81.48;99236.94;5025026;28;20073;-79
2021/08/07 00:04:31;;;;;;;27.85;24.83;;;;;;;18.48;81.50;99253.47;5024510;28;20137;-78
2021/08/07 00:06:57;;;;;;;35.20;26.95;;;;;;;18.44;81.05;99261.56;5008489;28;20033;-78
2021/08/07 00:09:23;;;;;;;31.77;27.05;;;;;;;18.37;81.13;99258.41;5010604;28;20409;-78
2021/08/07 00:11:49;;;;;;;29.40;24.00;;;;;;;18.38;81.34;99264.53;5014165;28;20053;-79
2021/08/07 00:14:15;;;;;;;27.58;22.67;;;;;;;18.40;81.23;99260.03;5008209;28;20056;-77
2021/08/07 00:16:41;;;;;;;27.85;22.83;;;;;;;18.49;81.65;99263.06;5007872;28;20046;-77
2021/08/07 00:19:07;;;;;;;26.52;20.90;;;;;;;18.49;81.37;99256.94;5009324;28;20117;-77
2021/08/07 00:21:33;;;;;;;20.80;18.60;;;;;;;18.56;81.30;99271.50;5009057;28;20033;-77
2021/08/07 00:23:59;;;;;;;25.23;19.35;;;;;;;18.50;81.18;99269.16;4997550;28;20045;-77
2021/08/07 00:26:24;;;;;;;25.40;18.67;;;;;;;18.41;80.89;99278.41;5009195;28;20131;-77
2021/08/07 00:29:01;;;;;;;23.85;18.98;;;;;;;18.41;81.32;99277.56;5025052;28;20034;-77
2021/08/07 00:31:27;;;;;;;20.55;18.13;;;;;;;18.43;81.49;99273.03;5027736;28;20052;-77
2021/08/07 00:33:53;;;;;;;20.73;17.95;;;;;;;18.39;81.50;99266.25;5027852;28;20042;-79
2021/08/07 00:36:19;;;;;;;19.83;17.73;;;;;;;18.46;81.24;99279.03;5028812;28;20497;-78
2021/08/07 00:38:45;;;;;;;22.48;18.25;;;;;;;18.45;81.40;99284.34;5011860;28;20080;-78
2021/08/07 00:41:10;;;;;;;23.05;19.00;;;;;;;18.42;81.34;99279.25;5029950;28;20045;-78
2021/08/07 00:43:37;;;;;;;19.30;17.13;;;;;;;18.39;81.67;99264.44;5053157;28;20147;-78
2021/08/07 00:46:09;;;;;;;21.27;18.55;;;;;;;18.45;81.35;99274.69;5038030;28;20076;-78
2021/08/07 00:48:37;;;;;;;22.80;18.73;;;;;;;18.29;80.77;99257.94;5012297;28;20076;-78
2021/08/07 00:51:14;;;;;;;21.42;18.20;;;;;;;18.27;81.40;99265.91;5027471;28;20037;-76
2021/08/07 00:53:46;;;;;;;25.65;19.27;;;;;;;18.25;81.41;99251.97;5027272;28;20041;-78
2021/08/07 00:56:17;;;;;;;24.25;19.45;;;;;;;18.27;81.36;99260.63;5027240;28;20116;-76
2021/08/07 00:58:51;;;;;;;26.38;19.92;;;;;;;18.34;81.51;99267.31;4995801;28;20037;-77
2021/08/07 01:01:20;;;;;;;22.23;18.60;;;;;;;18.34;81.40;99259.41;5024230;28;20124;-78
2021/08/07 01:03:53;;;;;;;23.92;20.52;;;;;;;18.24;81.71;99252.03;5007168;28;20065;-77
2021/08/07 01:06:47;;;;;;;24.05;20.15;;;;;;;18.31;81.71;99256.94;4991396;28;20129;-77
2021/08/07 01:09:34;;;;;;;23.70;20.35;;;;;;;18.35;81.76;99257.63;5007217;28;20501;-77
2021/08/07 01:12:19;;;;;;;23.55;19.80;;;;;;;18.27;81.80;99231.66;5007495;28;20354;-78
2021/08/07 01:14:48;;;;;;;22.63;19.05;;;;;;;18.23;81.98;99222.22;4976305;28;20077;-77
2021/08/07 01:17:25;;;;;;;25.92;20.85;;;;;;;18.33;81.66;99234.00;5011318;28;20423;-77
2021/08/07 01:20:24;;;;;;;23.52;18.67;;;;;;;18.36;81.85;99235.63;5011136;28;20046;-78
2021/08/07 01:23:11;;;;;;;32.05;20.13;;;;;;;18.37;81.81;99237.31;4994480;28;20061;-79
2021/08/07 01:26:14;;;;;;;26.00;19.55;;;;;;;18.29;81.56;99226.34;5031003;28;20045;-77
2021/08/07 01:28:51;;;;;;;23.40;19.80;;;;;;;18.24;81.64;99225.72;5029938;28;20072;-77
2021/08/07 01:31:21;;;;;;;23.00;19.67;;;;;;;18.24;82.04;99215.19;5031050;28;20088;-77
2021/08/07 01:33:48;;;;;;;24.45;19.90;;;;;;;18.24;81.67;99225.72;5030070;28;20045;-77
2021/08/07 01:36:21;;;;;;;24.92;20.02;;;;;;;18.22;81.73;99223.13;5030421;28;20041;-77
2021/08/07 01:38:54;;;;;;;26.63;20.90;;;;;;;18.23;81.83;99232.75;5032080;28;20417;-76
2021/08/07 01:41:22;;;;;;;28.35;19.58;;;;;;;18.23;81.93;99235.38;4998310;28;20563;-78
2021/08/07 01:43:55;;;;;;;25.52;20.35;;;;;;;18.21;81.77;99242.50;5013617;28;20087;-77
2021/08/07 01:46:28;;;;;;;25.55;19.92;;;;;;;18.27;81.63;99241.38;5034323;28;20057;-77
2021/08/07 01:49:08;;;;;;;25.58;20.67;;;;;;;18.25;82.10;99235.31;5033164;28;20041;-78
2021/08/07 01:52:00;;;;;;;24.23;18.95;;;;;;;18.21;82.17;99211.78;5030313;28;20041;-78
2021/08/07 01:54:45;;;;;;;22.85;19.25;;;;;;;18.35;82.04;99234.78;5013213;28;20057;-77
2021/08/07 01:57:16;;;;;;;23.83;18.58;;;;;;;18.35;81.80;99241.81;5013702;28;20045;-77
2021/08/07 01:59:45;;;;;;;24.23;18.90;;;;;;;18.28;81.40;99243.06;5013466;28;20045;-78
2021/08/07 02:02:13;;;;;;;20.50;17.45;;;;;;;18.19;82.14;99220.69;5003777;28;20180;-78
2021/08/07 02:04:48;;;;;;;27.58;20.98;;;;;;;18.27;81.73;99230.84;5010663;28;20143;-79
2021/08/07 02:07:27;;;;;;;25.20;21.05;;;;;;;18.16;81.85;99205.03;4993829;28;20101;-78
2021/08/07 02:10:00;;;;;;;26.15;21.67;;;;;;;18.20;81.79;99217.97;5010094;28;20052;-78
2021/08/07 02:12:27;;;;;;;27.05;20.88;;;;;;;18.21;81.50;99227.56;5009440;28;20141;-77
2021/08/07 02:14:59;;;;;;;25.90;20.20;;;;;;;18.24;82.34;99223.09;5009839;28;20041;-77
2021/08/07 02:17:26;;;;;;;26.10;20.50;;;;;;;18.27;81.94;99238.72;5010027;28;20050;-77
2021/08/07 02:19:53;;;;;;;23.88;20.17;;;;;;;18.35;82.32;99247.09;4993816;28;20107;-78
2021/08/07 02:22:20;;;;;;;25.77;20.88;;;;;;;18.44;82.14;99253.66;5010953;28;20422;-77
2021/08/07 02:24:47;;;;;;;31.08;21.83;;;;;;;18.42;82.01;99259.03;5027741;28;20041;-78
2021/08/07 02:27:23;;;;;;;27.05;20.85;;;;;;;18.40;81.94;99266.16;5030236;28;20131;-78
2021/08/07 02:29:50;;;;;;;27.30;22.00;;;;;;;18.36;81.88;99235.63;5031412;28;20081;-77
2021/08/07 02:32:16;;;;;;;23.42;19.98;;;;;;;18.44;82.22;99229.97;5032628;28;20081;-78
2021/08/07 02:34:50;;;;;;;24.67;19.98;;;;;;;18.47;81.84;99240.34;5016247;28;20041;-78
2021/08/07 02:37:25;;;;;;;26.88;21.25;;;;;;;18.32;81.54;99213.88;5031019;28;20052;-78
2021/08/07 02:39:53;;;;;;;29.08;20.77;;;;;;;18.39;81.99;99242.53;5030668;28;20049;-78
2021/08/07 02:42:20;;;;;;;25.80;21.15;;;;;;;18.30;81.88;99236.78;5030393;28;20050;-77
2021/08/07 02:44:47;;;;;;;23.67;20.00;;;;;;;18.36;81.97;99249.66;5029410;28;20060;-78
2021/08/07 02:47:16;;;;;;;22.38;19.65;;;;;;;18.28;82.14;99240.44;5029835;28;20037;-78
2021/08/07 02:49:43;;;;;;;26.40;22.67;;;;;;;18.32;81.93;99242.84;5045725;28;20037;-77
2021/08/07 02:52:10;;;;;;;25.60;21.25;;;;;;;18.29;81.76;99250.03;5051671;28;20045;-78
2021/08/07 02:54:36;;;;;;;24.15;20.92;;;;;;;18.32;82.06;99253.38;5016079;28;20096;-78
2021/08/07 02:57:03;;;;;;;26.38;20.17;;;;;;;18.43;82.17;99262.50;5029307;28;20419;-78
2021/08/07 02:59:30;;;;;;;24.23;19.20;;;;;;;18.46;82.21;99228.09;5028347;28;20053;-77
2021/08/07 03:01:57;;;;;;;29.33;21.40;;;;;;;18.52;81.74;99218.13;5021738;28;20042;-79
2021/08/07 03:04:23;;;;;;;23.75;19.88;;;;;;;18.48;82.06;99199.91;5008893;28;20191;-78
2021/08/07 03:06:52;;;;;;;20.65;18.48;;;;;;;18.56;81.83;99199.50;5025873;28;20073;-77
2021/08/07 03:09:18;;;;;;;24.25;20.98;;;;;;;18.54;81.33;99204.03;5009264;28;20034;-77
2021/08/07 03:11:48;;;;;;;23.75;20.05;;;;;;;18.47;81.68;99208.75;4977589;28;20045;-78
2021/08/07 03:14:18;;;;;;;24.45;19.58;;;;;;;18.40;81.90;99197.66;4992840;28;20049;-77
2021/08/07 03:16:45;;;;;;;22.25;19.70;;;;;;;18.42;81.40;99216.88;5009389;28;20042;-77
2021/08/07 03:19:15;;;;;;;24.70;21.17;;;;;;;18.43;81.66;99228.25;5010332;28;20140;-78
2021/08/07 03:21:42;;;;;;;25.25;19.63;;;;;;;18.55;81.96;99254.00;5011275;28;20480;-77
2021/08/07 03:24:09;;;;;;;23.38;19.33;;;;;;;18.66;82.02;99256.09;5021339;28;20123;-76
2021/08/07 03:26:38;;;;;;;25.30;20.75;;;;;;;18.73;81.80;99256.63;5029051;28;20832;-78
2021/08/07 03:29:13;;;;;;;23.83;19.77;;;;;;;18.78;81.57;99246.69;5028317;28;20052;-78
2021/08/07 03:31:39;;;;;;;22.13;19.25;;;;;;;18.74;81.23;99245.16;5033634;28;20041;-77
2021/08/07 03:34:05;;;;;;;21.13;18.90;;;;;;;18.69;81.37;99241.88;5017666;28;20037;-77
2021/08/07 03:36:31;;;;;;;24.98;19.65;;;;;;;18.71;81.47;99248.81;5028374;28;20084;-76
2021/08/07 03:39:00;;;;;;;23.90;19.52;;;;;;;18.70;81.20;99251.50;5011228;28;20041;-77
2021/08/07 03:41:28;;;;;;;26.02;20.17;;;;;;;18.71;81.14;99237.41;5011704;28;20077;-77
2021/08/07 03:43:54;;;;;;;21.38;18.88;;;;;;;18.74;81.18;99248.66;5028439;28;20088;-77
2021/08/07 03:46:22;;;;;;;24.42;19.63;;;;;;;18.72;81.04;99247.88;5011270;28;20040;-77
2021/08/07 03:48:50;;;;;;;21.15;17.38;;;;;;;18.78;81.52;99246.69;5027719;28;20041;-78
2021/08/07 03:51:16;;;;;;;28.15;19.90;;;;;;;18.81;81.61;99222.81;5027581;28;20039;-77
2021/08/07 03:53:45;;;;;;;22.35;19.63;;;;;;;18.91;81.38;99217.94;5028181;28;20045;-77
2021/08/07 03:56:13;;;;;;;23.83;19.83;;;;;;;18.97;81.43;99222.91;5027696;28;20183;-78
2021/08/07 03:58:41;;;;;;;20.02;17.88;;;;;;;19.33;81.94;99239.44;5029782;28;20057;-77
2021/08/07 04:01:16;;;;;;;23.33;18.33;;;;;;;19.50;80.45;99228.84;5024854;28;20152;-77
2021/08/07 04:03:42;;;;;;;20.55;17.27;;;;;;;19.61;80.94;99232.69;5008061;28;20048;-77
2021/08/07 04:06:07;;;;;;;23.63;17.23;;;;;;;19.59;80.20;99224.84;5009340;28;20042;-76
2021/08/07 04:08:35;;;;;;;20.38;16.90;;;;;;;19.62;80.35;99214.13;5008059;28;20045;-77
2021/08/07 04:11:01;;;;;;;19.27;17.13;;;;;;;19.78;79.95;99229.09;4991856;28;20417;-78
2021/08/07 04:13:35;;;;;;;20.80;16.35;;;;;;;19.89;80.03;99212.69;5008728;28;20128;-78
2021/08/07 04:16:04;;;;;;;19.63;16.80;;;;;;;20.02;79.78;99218.97;5008010;28;20053;-78
2021/08/07 04:18:30;;;;;;;22.17;17.13;;;;;;;20.08;79.09;99212.50;5007083;28;20132;-78
2021/08/07 04:20:57;;;;;;;24.63;17.10;;;;;;;20.04;79.51;99226.81;4991210;28;20492;-78
2021/08/07 04:23:23;;;;;;;22.95;16.90;;;;;;;19.96;79.30;99212.25;5013118;28;20132;-78
2021/08/07 04:25:48;;;;;;;20.23;16.27;;;;;;;20.13;78.85;99235.06;5028801;28;20040;-78
2021/08/07 04:28:15;;;;;;;20.88;16.75;;;;;;;20.12;78.74;99217.50;5027974;28;20053;-79
2021/08/07 04:30:44;;;;;;;22.42;15.95;;;;;;;20.27;79.11;99217.53;5011402;28;20048;-79
2021/08/07 04:33:11;;;;;;;21.42;16.30;;;;;;;20.38;78.33;99224.84;5011275;28;20140;-79
2021/08/07 04:35:43;;;;;;;20.80;15.50;;;;;;;20.49;78.40;99234.78;5010609;28;20037;-77
2021/08/07 04:38:15;;;;;;;20.88;15.68;;;;;;;20.52;77.82;99235.47;5012753;28;20110;-78
2021/08/07 04:40:41;;;;;;;21.48;16.48;;;;;;;20.54;77.48;99225.63;5012559;28;20033;-78
2021/08/07 04:43:13;;;;;;;20.67;16.13;;;;;;;20.71;77.44;99243.13;5011123;28;20038;-78
2021/08/07 04:45:39;;;;;;;19.67;15.25;;;;;;;20.67;77.03;99203.75;5011427;28;20041;-78
2021/08/07 04:48:15;;;;;;;17.63;15.07;;;;;;;20.77;76.29;99228.72;5011286;28;20592;-78
2021/08/07 04:51:00;;;;;;;18.42;14.90;;;;;;;20.97;76.70;99245.16;5017929;28;20416;-77
2021/08/07 04:53:34;;;;;;;16.90;15.10;;;;;;;20.80;76.11;99227.69;5018830;28;20114;-78
2021/08/07 04:56:06;;;;;;;20.00;15.57;;;;;;;21.08;76.41;99253.31;5022011;28;20061;-78
2021/08/07 04:58:35;;;;;;;22.15;15.30;;;;;;;20.95;75.43;99260.28;5029823;28;20068;-77
2021/08/07 05:01:00;;;;;;;22.23;15.77;;;;;;;20.82;75.90;99245.16;5015344;28;20504;-78
2021/08/07 05:03:29;;;;;;;20.80;14.57;;;;;;;21.07;75.68;99267.47;4995800;28;20121;-77
2021/08/07 05:06:02;;;;;;;17.63;15.18;;;;;;;21.06;75.71;99234.91;5011403;28;20425;-78
2021/08/07 05:08:29;;;;;;;16.73;14.35;;;;;;;21.01;74.88;99221.09;4994902;28;20136;-78
2021/08/07 05:10:57;;;;;;;15.10;13.38;;;;;;;21.29;75.29;99239.69;4995279;28;20057;-78
2021/08/07 05:13:23;;;;;;;17.27;13.50;;;;;;;21.58;75.29;99260.84;5011455;28;20195;-77
2021/08/07 05:15:48;;;;;;;17.65;13.88;;;;;;;21.80;74.91;99270.94;5012008;28;20042;-78
2021/08/07 05:18:24;;;;;;;23.95;15.30;;;;;;;21.85;73.93;99223.00;5002824;28;20041;-78
2021/08/07 05:20:53;;;;;;;21.10;14.88;;;;;;;22.16;73.68;99226.25;5012827;28;20049;-78
2021/08/07 05:23:25;;;;;;;16.40;14.23;;;;;;;22.30;73.64;99188.25;5016174;28;20041;-79
2021/08/07 05:26:17;;;;;;;19.63;13.75;;;;;;;23.11;73.03;99226.91;5031427;28;20045;-78
2021/08/07 05:28:45;;;;;;;19.83;13.85;;;;;;;23.34;71.66;99218.31;5031728;28;20118;-79
2021/08/07 05:31:14;;;;;;;16.88;13.95;;;;;;;23.20;70.88;99220.09;5031721;28;20056;-77
2021/08/07 05:33:46;;;;;;;16.48;13.63;;;;;;;23.20;71.22;99217.44;5021687;28;20241;-78
2021/08/07 05:36:12;;;;;;;23.48;14.07;;;;;;;23.44;70.57;99233.47;5039605;28;20095;-77
2021/08/07 05:38:38;;;;;;;14.90;12.50;;;;;;;23.95;68.55;99241.38;5036296;28;20440;-76
2021/08/07 05:41:05;;;;;;;15.00;11.93;;;;;;;25.17;68.29;99224.19;5031568;28;20049;-78
2021/08/07 05:43:32;;;;;;;14.93;11.85;;;;;;;26.40;67.37;99219.69;5030730;28;20088;-78
2021/08/07 05:45:58;;;;;;;16.42;10.73;;;;;;;27.38;62.73;99222.00;5031301;28;20139;-80
2021/08/07 05:48:24;;;;;;;14.05;9.90;;;;;;;27.90;60.81;99190.66;5031570;28;20200;-78
2021/08/07 05:50:50;;;;;;;12.25;10.07;;;;;;;28.38;58.38;99180.06;5030759;28;20029;-77
2021/08/07 05:53:19;;;;;;;17.52;9.38;;;;;;;28.11;57.79;99192.38;5013924;28;20041;-78
2021/08/07 05:55:57;;;;;;;10.80;8.60;;;;;;;27.46;56.45;99164.28;5014620;28;20052;-77
2021/08/07 05:58:23;;;;;;;15.45;8.77;;;;;;;27.84;54.95;99193.88;5014059;28;20037;-79
2021/08/07 06:00:49;;;;;;;18.63;9.45;;;;;;;27.81;55.45;99186.97;4997258;28;20037;-79
2021/08/07 06:03:18;;;;;;;12.98;9.27;;;;;;;27.75;54.35;99181.34;4978851;28;20045;-81
2021/08/07 06:06:03;;;;;;;16.17;8.80;;;;;;;28.14;54.39;99168.00;5012949;28;20030;-80
2021/08/07 06:08:32;;;;;;;10.88;8.02;;;;;;;28.61;52.46;99159.19;5011079;28;20738;-79
2021/08/07 06:11:06;;;;;;;14.93;8.77;;;;;;;29.75;53.06;99171.44;5010410;28;20041;-79
2021/08/07 06:13:35;;;;;;;13.35;7.85;;;;;;;30.95;48.40;99181.75;4994460;28;20498;-78
2021/08/07 06:16:02;;;;;;;13.02;7.97;;;;;;;31.80;47.07;99185.41;5012079;28;20037;-80
2021/08/07 06:18:31;;;;;;;7.53;6.60;;;;;;;32.73;47.60;99174.44;4994317;28;20056;-79
2021/08/07 06:20:57;;;;;;;12.10;6.78;;;;;;;34.03;45.99;99172.28;5010744;28;20037;-78
2021/08/07 06:23:23;;;;;;;10.25;6.55;;;;;;;34.29;42.89;99192.66;5015106;28;20513;-80
2021/08/07 06:25:52;;;;;;;10.57;6.88;;;;;;;34.36;41.11;99188.19;5013328;28;20037;-80
2021/08/07 06:28:22;;;;;;;11.25;5.93;;;;;;;35.09;40.38;99164.13;5029682;28;20497;-80
2021/08/07 06:30:51;;;;;;;10.85;6.05;;;;;;;36.14;39.07;99152.97;4997820;28;20508;-77
2021/08/07 06:33:21;;;;;;;11.88;6.75;;;;;;;35.24;36.34;99171.38;5029597;28;20045;-78
2021/08/07 06:35:47;;;;;;;10.68;5.97;;;;;;;33.33;37.88;99146.09;5027145;28;20049;-79
2021/08/07 06:38:15;;;;;;;10.73;6.43;;;;;;;32.69;38.82;99167.69;5031282;28;20505;-80
2021/08/07 06:40:41;;;;;;;9.18;6.35;;;;;;;32.65;40.27;99179.84;5031061;28;20049;-79
2021/08/07 06:43:11;;;;;;;13.00;6.10;;;;;;;32.89;39.92;99185.16;4998794;28;20049;-79
2021/08/07 06:45:47;;;;;;;10.30;6.03;;;;;;;32.73;39.77;99159.13;5032669;28;20280;-82
2021/08/07 06:48:17;;;;;;;7.07;6.00;;;;;;;31.82;40.59;99169.09;5034305;28;20037;-78
2021/08/07 06:50:43;;;;;;;11.90;6.40;;;;;;;31.68;40.46;99167.88;4994727;28;20046;-80
2021/08/07 06:53:12;;;;;;;10.15;5.90;;;;;;;31.30;40.99;99157.56;4994126;28;20034;-80
2021/08/07 06:55:39;;;;;;;6.55;5.85;;;;;;;30.62;40.79;99156.59;4994505;28;20137;-77
2021/08/07 06:58:08;;;;;;;14.00;5.78;;;;;;;29.69;42.32;99166.69;4980349;28;20042;-78
2021/08/07 07:00:39;;;;;;;10.70;6.10;;;;;;;28.99;44.79;99186.00;5014120;28;20056;-78
2021/08/07 07:03:25;;;;;;;;;;;;;;;28.40;45.85;99188.78;5004725;28;20052;-79
2021/08/07 07:05:51;;;;;;;16.65;5.75;;;;;;;27.92;46.57;99196.66;5026800;28;19928;-78
2021/08/07 07:08:20;;;;;;;7.30;5.80;;;;;;;27.60;47.21;99197.78;4989910;28;20564;-78
2021/08/07 07:10:53;;;;;;;6.82;5.22;;;;;;;27.28;48.59;99220.16;5010122;28;20181;-77
2021/08/07 07:13:25;;;;;;;9.43;5.90;;;;;;;26.79;49.01;99243.09;4992616;28;20044;-78
2021/08/07 07:15:51;;;;;;;7.90;5.78;;;;;;;26.51;49.65;99245.44;5008346;28;20041;-78
2021/08/07 07:18:17;;;;;;;8.65;5.50;;;;;;;26.30;50.69;99241.75;5008508;28;20084;-77
2021/08/07 07:20:43;;;;;;;9.20;5.38;;;;;;;25.82;51.84;99235.03;5008720;28;20069;-76
2021/08/07 07:23:09;;;;;;;12.88;5.93;;;;;;;25.64;52.20;99265.81;5010703;28;20124;-79
2021/08/07 07:25:41;;;;;;;9.52;5.35;;;;;;;25.43;53.21;99266.56;5027952;28;20041;-76
2021/08/07 07:28:07;;;;;;;8.23;5.80;;;;;;;25.27;53.68;99275.72;5010831;28;20095;-78
2021/08/07 07:30:33;;;;;;;12.32;5.85;;;;;;;24.61;54.72;99196.53;5026705;28;20041;-80
2021/08/07 07:33:00;;;;;;;11.82;6.20;;;;;;;24.91;55.04;99266.16;4994776;28;20033;-78
2021/08/07 07:35:26;;;;;;;14.82;6.07;;;;;;;24.81;55.67;99256.22;5027347;28;20470;-78
2021/08/07 07:37:52;;;;;;;17.35;6.53;;;;;;;24.85;55.87;99251.50;5010739;28;20045;-78
2021/08/07 07:40:19;;;;;;;17.85;6.47;;;;;;;25.16;56.42;99265.09;5010010;28;20460;-75
2021/08/07 07:42:47;;;;;;;8.85;5.95;;;;;;;25.69;55.84;99301.75;5027572;28;20588;-77
2021/08/07 07:45:13;;;;;;;10.95;5.28;;;;;;;25.61;55.38;99285.53;5027455;28;20501;-76
2021/08/07 07:47:41;;;;;;;11.63;5.90;;;;;;;25.62;55.35;99321.03;5026716;28;20068;-77
2021/08/07 07:50:11;;;;;;;13.32;5.72;;;;;;;25.45;55.99;99331.22;5027403;28;20045;-79
2021/08/07 07:52:37;;;;;;;8.57;5.57;;;;;;;25.27;55.48;99330.78;5027347;28;20455;-77
2021/08/07 07:55:06;;;;;;;9.48;5.78;;;;;;;25.29;56.14;99349.28;5027739;28;20385;-76
2021/08/07 07:57:37;;;;;;;11.75;5.63;;;;;;;24.86;56.79;99322.38;5028969;28;20500;-77
2021/08/07 08:00:04;;;;;;;10.90;5.68;;;;;;;24.67;57.39;99345.00;5027083;28;20079;-77
2021/08/07 08:02:33;;;;;;;8.68;5.70;;;;;;;24.42;58.01;99318.53;5013132;28;20045;-77
2021/08/07 08:04:59;;;;;;;8.00;6.00;;;;;;;24.28;58.34;99314.25;5008277;28;20098;-78
2021/08/07 08:07:25;;;;;;;12.63;6.93;;;;;;;24.28;58.64;99328.41;5023690;28;20513;-80
2021/08/07 08:09:51;;;;;;;11.00;7.13;;;;;;;24.05;58.60;99300.88;4991163;28;20084;-79
2021/08/07 08:12:18;;;;;;;9.98;7.15;;;;;;;23.56;60.23;99282.19;5008512;28;20042;-77
2021/08/07 08:14:47;;;;;;;10.00;7.05;;;;;;;23.54;61.74;99283.22;5008280;28;20053;-79
2021/08/07 08:17:13;;;;;;;8.90;7.43;;;;;;;23.39;62.77;99282.53;4991314;28;20045;-78
2021/08/07 08:19:41;;;;;;;10.85;7.40;;;;;;;23.68;63.00;99298.19;5023881;28;20243;-78
2021/08/07 08:22:07;;;;;;;10.35;8.25;;;;;;;23.99;63.76;99299.50;5008153;28;20054;-77
2021/08/07 08:24:34;;;;;;;14.43;7.50;;;;;;;24.38;64.43;99285.22;5023923;28;20172;-77
2021/08/07 08:27:00;;;;;;;10.18;7.22;;;;;;;24.74;64.16;99283.41;5032701;28;20056;-78
2021/08/07 08:29:26;;;;;;;13.45;8.63;;;;;;;25.17;63.02;99281.88;5014474;28;20056;-78
2021/08/07 08:31:52;;;;;;;15.32;8.02;;;;;;;26.60;63.76;99261.50;5031424;28;20045;-77
2021/08/07 08:34:18;;;;;;;10.20;6.85;;;;;;;27.87;59.99;99222.13;5031466;28;20049;-78
2021/08/07 08:36:47;;;;;;;14.63;7.85;;;;;;;28.37;57.05;99221.16;5031772;28;20127;-77
2021/08/07 08:39:13;;;;;;;13.65;8.07;;;;;;;28.80;55.46;99200.28;5030881;28;20033;-78
2021/08/07 08:41:39;;;;;;;15.05;7.78;;;;;;;29.70;55.84;99219.31;5015176;28;20059;-77
2021/08/07 08:44:05;;;;;;;14.85;7.57;;;;;;;31.11;51.76;99217.75;5034445;28;20056;-79
2021/08/07 08:46:31;;;;;;;19.73;8.02;;;;;;;31.21;49.68;99212.28;5035501;28;20037;-78
2021/08/07 08:48:58;;;;;;;14.73;7.22;;;;;;;32.09;48.84;99207.44;5031785;28;20103;-80
2021/08/07 08:51:26;;;;;;;11.73;6.65;;;;;;;32.88;46.15;99202.34;5030876;28;20132;-79
2021/08/07 08:53:54;;;;;;;12.45;7.05;;;;;;;33.26;45.92;99188.22;5014190;28;20037;-78
2021/08/07 08:56:20;;;;;;;8.65;6.88;;;;;;;33.58;44.25;99186.41;4998309;28;20080;-78
2021/08/07 08:58:47;;;;;;;18.33;8.98;;;;;;;34.15;42.53;99194.28;4998520;28;20049;-79
2021/08/07 09:01:15;;;;;;;17.25;9.32;;;;;;;34.60;42.74;99188.97;5028339;28;20123;-79
2021/08/07 09:03:43;;;;;;;12.43;7.50;;;;;;;34.41;41.97;99207.38;5012821;28;20040;-78
2021/08/07 09:06:11;;;;;;;10.23;6.85;;;;;;;34.43;40.69;99196.44;5014289;28;20038;-78
2021/08/07 09:08:38;;;;;;;10.15;6.38;;;;;;;34.76;40.35;99194.19;5034221;28;20041;-79
2021/08/07 09:11:22;;;;;;;11.48;5.43;;;;;;;35.22;38.97;99198.59;5028022;28;20462;-78
2021/08/07 09:14:16;;;;;;;11.70;5.15;;;;;;;33.98;38.74;99202.53;5013936;28;20094;-79
2021/08/07 09:17:00;;;;;;;9.88;5.20;;;;;;;32.79;40.59;99216.84;5012879;28;20141;-78
2021/08/07 09:19:47;;;;;;;11.07;5.35;;;;;;;32.17;41.82;99220.06;5012661;28;20057;-78
2021/08/07 09:22:21;;;;;;;9.50;5.50;;;;;;;32.05;42.58;99216.84;5012841;28;20049;-78
2021/08/07 09:25:09;;;;;;;5.65;4.95;;;;;;;31.56;42.00;99239.94;5008116;28;20465;-78
2021/08/07 09:27:43;;;;;;;9.93;5.15;;;;;;;30.92;43.54;99249.22;5021199;28;20041;-77
2021/08/07 09:30:13;;;;;;;7.45;5.32;;;;;;;30.43;44.39;99248.84;5034361;28;20049;-79
2021/08/07 09:33:10;;;;;;;8.65;5.20;;;;;;;30.04;46.53;99258.03;5031993;28;20053;-78
2021/08/07 09:35:48;;;;;;;9.32;5.18;;;;;;;29.87;47.24;99238.25;5017229;28;20065;-79
2021/08/07 09:38:25;;;;;;;15.93;5.57;;;;;;;29.29;47.76;99218.81;5032310;28;20048;-78
2021/08/07 09:41:04;;;;;;;10.65;6.32;;;;;;;28.95;50.16;99251.53;5017173;28;20107;-78
2021/08/07 09:43:45;;;;;;;8.03;6.10;;;;;;;28.47;51.26;99254.13;5013980;28;20041;-77
2021/08/07 09:46:15;;;;;;;10.75;6.50;;;;;;;27.97;52.47;99257.75;5014809;28;20088;-79
2021/08/07 09:48:53;;;;;;;10.75;6.72;;;;;;;27.81;54.06;99258.28;5013933;28;20045;-79
2021/08/07 09:51:23;;;;;;;10.63;6.53;;;;;;;27.47;53.47;99261.31;5030106;28;20443;-78
2021/08/07 09:54:01;;;;;;;11.55;6.10;;;;;;;27.21;55.88;99269.75;5032040;28;20053;-76
2021/08/07 09:56:39;;;;;;;9.98;6.35;;;;;;;26.83;56.73;99252.53;5013466;28;20044;-79
2021/08/07 09:59:08;;;;;;;10.20;6.30;;;;;;;26.83;57.30;99249.88;5029224;28;20049;-78
2021/08/07 10:01:35;;;;;;;12.18;9.40;;;;;;;26.96;59.15;99220.28;5024311;28;20053;-77
2021/08/07 10:04:10;;;;;;;12.88;6.85;;;;;;;27.24;59.42;99233.91;5010040;28;20045;-78
2021/08/07 10:06:37;;;;;;;8.95;6.47;;;;;;;27.11;58.31;99255.50;5010090;28;20048;-78
2021/08/07 10:09:06;;;;;;;11.90;6.10;;;;;;;26.95;58.83;99246.16;5009506;28;20397;-78
2021/08/07 10:11:33;;;;;;;11.55;5.55;;;;;;;26.84;58.43;99240.88;5009844;28;20065;-78
2021/08/07 10:14:02;;;;;;;6.65;5.00;;;;;;;27.11;58.41;99243.00;5010304;28;20041;-78
2021/08/07 10:16:35;;;;;;;9.13;5.97;;;;;;;27.64;57.21;99249.97;5010303;28;20684;-77
2021/08/07 10:19:02;;;;;;;11.00;6.10;;;;;;;28.38;55.91;99245.13;5010705;28;20132;-77
2021/08/07 10:21:30;;;;;;;10.05;5.20;;;;;;;28.86;54.43;99240.69;5009396;28;20060;-77
2021/08/07 10:23:57;;;;;;;7.40;5.47;;;;;;;30.30;53.16;99259.97;4998220;28;20177;-78
2021/08/07 10:26:26;;;;;;;8.57;5.07;;;;;;;31.40;49.84;99254.16;5009438;28;20038;-78
2021/08/07 10:28:54;;;;;;;8.35;4.90;;;;;;;32.53;47.72;99241.28;5008546;28;20033;-79
2021/08/07 10:31:22;;;;;;;8.60;4.57;;;;;;;33.35;45.78;99242.94;5032204;28;20052;-79
2021/08/07 10:33:53;;;;;;;6.93;5.05;;;;;;;34.54;44.06;99258.06;5028828;28;20061;-79
2021/08/07 10:36:19;;;;;;;13.37;4.97;;;;;;;34.69;41.34;99255.41;5028996;28;20528;-78
2021/08/07 10:38:46;;;;;;;9.70;5.05;;;;;;;34.42;40.23;99263.03;5029250;28;20091;-79
2021/08/07 10:41:14;;;;;;;7.22;4.72;;;;;;;34.12;40.61;99262.94;5028737;28;20070;-79
2021/08/07 10:43:41;;;;;;;7.25;5.63;;;;;;;33.82;40.76;99270.03;5030939;28;20049;-77
2021/08/07 10:46:09;;;;;;;9.57;4.70;;;;;;;33.51;41.07;99271.69;5030380;28;20042;-78
2021/08/07 10:48:38;;;;;;;7.80;5.60;;;;;;;33.15;40.56;99262.22;5030233;28;20045;-78
2021/08/07 10:51:24;;;;;;;8.43;5.32;;;;;;;32.68;41.03;99269.19;5030221;28;20087;-78
2021/08/07 10:53:51;;;;;;;6.15;4.90;;;;;;;32.49;41.48;99250.72;5031773;28;20048;-78
2021/08/07 10:56:25;;;;;;;8.68;5.22;;;;;;;32.42;41.82;99232.53;5013251;28;20128;-78
2021/08/07 10:59:16;;;;;;;9.30;5.50;;;;;;;32.43;42.32;99250.38;5033053;28;20044;-79
2021/08/07 11:01:48;;;;;;;9.13;5.57;;;;;;;32.23;42.00;99247.13;5024165;28;20054;-77
2021/08/07 11:04:21;;;;;;;10.63;6.00;;;;;;;32.21;41.60;99267.16;5011647;28;20046;-78
2021/08/07 11:06:49;;;;;;;5.68;5.15;;;;;;;31.98;41.87;99270.50;5010533;28;20100;-79
2021/08/07 11:09:28;;;;;;;13.55;6.97;;;;;;;31.29;42.51;99279.50;5011529;28;20124;-78
2021/08/07 11:12:06;;;;;;;10.35;6.75;;;;;;;30.88;43.16;99268.50;5018146;28;20048;-78
2021/08/07 11:14:31;;;;;;;14.10;7.88;;;;;;;30.58;44.40;99274.13;5031309;28;20100;-78
2021/08/07 11:17:06;;;;;;;19.25;8.57;;;;;;;30.43;44.29;99275.66;5023699;28;20070;-78
2021/08/07 11:19:44;;;;;;;16.25;8.50;;;;;;;30.09;45.48;99271.00;5014057;28;20044;-79
2021/08/07 11:22:16;;;;;;;12.73;6.63;;;;;;;29.94;45.76;99252.72;5010032;28;20139;-80
2021/08/07 11:24:56;;;;;;;11.65;6.88;;;;;;;30.22;44.89;99265.28;5025391;28;20044;-78
2021/08/07 11:27:45;;;;;;;15.63;7.43;;;;;;;30.20;45.52;99263.59;5029850;28;20029;-78
2021/08/07 11:30:30;;;;;;;16.90;6.15;;;;;;;30.35;45.14;99263.03;5028793;28;20636;-77
2021/08/07 11:33:02;;;;;;;16.42;6.30;;;;;;;30.37;45.26;99266.41;5028503;28;20033;-78
2021/08/07 11:35:30;;;;;;;11.93;6.15;;;;;;;30.28;44.63;99267.31;5012171;28;20071;-79
2021/08/07 11:38:22;;;;;;;12.75;5.70;;;;;;;29.94;44.56;99259.94;5013178;28;20244;-80